sensor_id;sensor_type;location;lat;lon;timestamp;pressure;altitude;pressure_sealevel;temperature;humidity
46942;BME280;32676;52.630;4.896;2023-07-20T00:01:45;99777.75;;;16.06;82.64
46942;BME280;32676;52.630;4.896;2023-07-20T00:04:12;99769.91;;;16.05;82.31
46942;BME280;32676;52.630;4.896;2023-07-20T00:06:39;99756.03;;;16.01;82.13
46942;BME280;32676;52.630;4.896;2023-07-20T00:09:09;99765.63;;;16.02;82.03
46942;BME280;32676;52.630;4.896;2023-07-20T00:11:36;99764.91;;;16.00;81.91
46942;BME280;32676;52.630;4.896;2023-07-20T00:14:04;99743.19;;;15.95;81.66
46942;BME280;32676;52.630;4.896;2023-07-20T00:16:32;99734.50;;;15.93;81.87
46942;BME280;32676;52.630;4.896;2023-07-20T00:18:58;99724.03;;;15.91;81.64
46942;BME280;32676;52.630;4.896;2023-07-20T00:21:24;99723.28;;;15.89;81.78
46942;BME280;32676;52.630;4.896;2023-07-20T00:23:51;99711.22;;;15.85;81.69
46942;BME280;32676;52.630;4.896;2023-07-20T00:26:17;99701.72;;;15.83;81.76
46942;BME280;32676;52.630;4.896;2023-07-20T00:28:44;99697.38;;;15.82;81.74
46942;BME280;32676;52.630;4.896;2023-07-20T00:31:11;99695.78;;;15.79;81.85
46942;BME280;32676;52.630;4.896;2023-07-20T00:33:38;99687.94;;;15.78;81.65
46942;BME280;32676;52.630;4.896;2023-07-20T00:36:04;99666.13;;;15.74;81.68
46942;BME280;32676;52.630;4.896;2023-07-20T00:38:30;99674.16;;;15.72;81.86
46942;BME280;32676;52.630;4.896;2023-07-20T00:40:57;99668.03;;;15.72;81.79
46942;BME280;32676;52.630;4.896;2023-07-20T00:43:23;99664.50;;;15.71;81.49
46942;BME280;32676;52.630;4.896;2023-07-20T00:45:49;99668.13;;;15.70;81.78
46942;BME280;32676;52.630;4.896;2023-07-20T00:48:17;99659.34;;;15.70;81.89
46942;BME280;32676;52.630;4.896;2023-07-20T00:50:44;99657.75;;;15.67;81.86
46942;BME280;32676;52.630;4.896;2023-07-20T00:53:11;99660.41;;;15.67;81.53
46942;BME280;32676;52.630;4.896;2023-07-20T00:55:37;99653.44;;;15.66;81.70
46942;BME280;32676;52.630;4.896;2023-07-20T00:58:04;99646.63;;;15.62;81.53
46942;BME280;32676;52.630;4.896;2023-07-20T01:00:30;99631.00;;;15.59;81.83
46942;BME280;32676;52.630;4.896;2023-07-20T01:02:57;99620.63;;;15.56;81.60
46942;BME280;32676;52.630;4.896;2023-07-20T01:05:26;99612.06;;;15.52;81.94
46942;BME280;32676;52.630;4.896;2023-07-20T01:07:58;99600.84;;;15.49;82.05
46942;BME280;32676;52.630;4.896;2023-07-20T01:10:25;99589.53;;;15.47;81.95
46942;BME280;32676;52.630;4.896;2023-07-20T01:12:55;99582.63;;;15.44;81.93
46942;BME280;32676;52.630;4.896;2023-07-20T01:15:21;99582.75;;;15.43;81.89
46942;BME280;32676;52.630;4.896;2023-07-20T01:17:47;99588.78;;;15.45;81.56
46942;BME280;32676;52.630;4.896;2023-07-20T01:20:14;99582.75;;;15.43;81.33
46942;BME280;32676;52.630;4.896;2023-07-20T01:22:53;99581.06;;;15.42;81.23
46942;BME280;32676;52.630;4.896;2023-07-20T01:25:32;99563.72;;;15.38;81.03
46942;BME280;32676;52.630;4.896;2023-07-20T01:28:07;99555.03;;;15.35;80.72
46942;BME280;32676;52.630;4.896;2023-07-20T01:30:48;99556.09;;;15.33;80.69
46942;BME280;32676;52.630;4.896;2023-07-20T01:33:18;99525.63;;;15.27;80.78
46942;BME280;32676;52.630;4.896;2023-07-20T01:35:46;99518.88;;;15.23;80.86
46942;BME280;32676;52.630;4.896;2023-07-20T01:38:14;99509.34;;;15.21;81.23
46942;BME280;32676;52.630;4.896;2023-07-20T01:40:41;99492.84;;;15.17;81.21
46942;BME280;32676;52.630;4.896;2023-07-20T01:43:08;99491.16;;;15.16;81.42
46942;BME280;32676;52.630;4.896;2023-07-20T01:45:34;99479.13;;;15.12;81.19
46942;BME280;32676;52.630;4.896;2023-07-20T01:48:00;99471.41;;;15.09;81.29
46942;BME280;32676;52.630;4.896;2023-07-20T01:50:28;99438.31;;;15.03;81.19
46942;BME280;32676;52.630;4.896;2023-07-20T01:52:54;99435.78;;;15.02;81.41
46942;BME280;32676;52.630;4.896;2023-07-20T01:55:21;99422.03;;;14.96;81.55
46942;BME280;32676;52.630;4.896;2023-07-20T01:57:47;99417.72;;;14.95;81.52
46942;BME280;32676;52.630;4.896;2023-07-20T02:00:14;99406.38;;;14.93;81.66
46942;BME280;32676;52.630;4.896;2023-07-20T02:02:41;99408.28;;;14.91;81.49
46942;BME280;32676;52.630;4.896;2023-07-20T02:05:07;99399.63;;;14.89;81.32
46942;BME280;32676;52.630;4.896;2023-07-20T02:07:35;99387.50;;;14.87;81.12
46942;BME280;32676;52.630;4.896;2023-07-20T02:10:01;99372.81;;;14.83;80.84
46942;BME280;32676;52.630;4.896;2023-07-20T02:12:27;99370.28;;;14.81;81.02
46942;BME280;32676;52.630;4.896;2023-07-20T02:14:54;99352.94;;;14.77;81.01
46942;BME280;32676;52.630;4.896;2023-07-20T02:17:20;99332.22;;;14.71;80.88
46942;BME280;32676;52.630;4.896;2023-07-20T02:19:46;99319.22;;;14.68;81.45
46942;BME280;32676;52.630;4.896;2023-07-20T02:22:14;99312.38;;;14.65;81.46
46942;BME280;32676;52.630;4.896;2023-07-20T02:24:43;99301.19;;;14.62;81.39
46942;BME280;32676;52.630;4.896;2023-07-20T02:27:09;99287.25;;;14.59;81.66
46942;BME280;32676;52.630;4.896;2023-07-20T02:29:35;99273.50;;;14.54;81.89
46942;BME280;32676;52.630;4.896;2023-07-20T02:32:02;99250.88;;;14.50;81.79
46942;BME280;32676;52.630;4.896;2023-07-20T02:34:28;99235.47;;;14.44;81.59
46942;BME280;32676;52.630;4.896;2023-07-20T02:36:55;99220.69;;;14.42;81.79
46942;BME280;32676;52.630;4.896;2023-07-20T02:39:22;99206.13;;;14.36;81.71
46942;BME280;32676;52.630;4.896;2023-07-20T02:41:50;99204.44;;;14.35;81.83
46942;BME280;32676;52.630;4.896;2023-07-20T02:44:16;99206.13;;;14.36;82.12
46942;BME280;32676;52.630;4.896;2023-07-20T02:46:43;99203.59;;;14.34;81.97
46942;BME280;32676;52.630;4.896;2023-07-20T02:49:09;99202.78;;;14.34;81.56
46942;BME280;32676;52.630;4.896;2023-07-20T02:51:35;99183.78;;;14.29;81.65
46942;BME280;32676;52.630;4.896;2023-07-20T02:54:01;99173.41;;;14.26;81.69
46942;BME280;32676;52.630;4.896;2023-07-20T02:56:28;99159.69;;;14.20;82.16
46942;BME280;32676;52.630;4.896;2023-07-20T02:58:56;99142.41;;;14.16;82.26
46942;BME280;32676;52.630;4.896;2023-07-20T03:01:22;99133.75;;;14.14;81.93
46942;BME280;32676;52.630;4.896;2023-07-20T03:03:48;99132.19;;;14.12;82.42
46942;BME280;32676;52.630;4.896;2023-07-20T03:06:15;99118.13;;;14.11;81.97
46942;BME280;32676;52.630;4.896;2023-07-20T03:08:41;99118.38;;;14.08;81.91
46942;BME280;32676;52.630;4.896;2023-07-20T03:11:12;99123.66;;;14.08;81.87
46942;BME280;32676;52.630;4.896;2023-07-20T03:13:38;99101.91;;;14.05;82.00
46942;BME280;32676;52.630;4.896;2023-07-20T03:16:06;99101.19;;;14.02;82.29
46942;BME280;32676;52.630;4.896;2023-07-20T03:18:36;99082.09;;;13.99;81.93
46942;BME280;32676;52.630;4.896;2023-07-20T03:21:02;99079.56;;;13.97;82.33
46942;BME280;32676;52.630;4.896;2023-07-20T03:23:28;99063.94;;;13.94;82.15
46942;BME280;32676;52.630;4.896;2023-07-20T03:25:55;99059.75;;;13.92;82.23
46942;BME280;32676;52.630;4.896;2023-07-20T03:28:21;99064.16;;;13.91;82.41
46942;BME280;32676;52.630;4.896;2023-07-20T03:30:52;99060.78;;;13.89;82.03
46942;BME280;32676;52.630;4.896;2023-07-20T03:33:20;99043.38;;;13.87;82.25
46942;BME280;32676;52.630;4.896;2023-07-20T03:35:47;99046.03;;;13.87;81.96
46942;BME280;32676;52.630;4.896;2023-07-20T03:38:13;99046.97;;;13.86;81.90
46942;BME280;32676;52.630;4.896;2023-07-20T03:40:39;99043.59;;;13.83;82.14
46942;BME280;32676;52.630;4.896;2023-07-20T03:43:14;99025.34;;;13.80;82.17
46942;BME280;32676;52.630;4.896;2023-07-20T03:45:40;99030.63;;;13.80;81.99
46942;BME280;32676;52.630;4.896;2023-07-20T03:48:07;99034.25;;;13.79;81.91
46942;BME280;32676;52.630;4.896;2023-07-20T03:50:34;99039.53;;;13.79;81.83
46942;BME280;32676;52.630;4.896;2023-07-20T03:53:01;99041.19;;;13.80;81.78
46942;BME280;32676;52.630;4.896;2023-07-20T03:55:27;99034.25;;;13.79;81.89
46942;BME280;32676;52.630;4.896;2023-07-20T03:57:53;99040.34;;;13.80;81.90
46942;BME280;32676;52.630;4.896;2023-07-20T04:00:20;99030.00;;;13.77;81.59
46942;BME280;32676;52.630;4.896;2023-07-20T04:02:46;99039.75;;;13.76;81.90
46942;BME280;32676;52.630;4.896;2023-07-20T04:05:12;99037.09;;;13.76;81.79
46942;BME280;32676;52.630;4.896;2023-07-20T04:07:40;99032.53;;;13.78;82.10
46942;BME280;32676;52.630;4.896;2023-07-20T04:10:06;99048.38;;;13.78;81.96
46942;BME280;32676;52.630;4.896;2023-07-20T04:12:33;99050.09;;;13.79;82.15
46942;BME280;32676;52.630;4.896;2023-07-20T04:14:59;99056.19;;;13.80;81.68
46942;BME280;32676;52.630;4.896;2023-07-20T04:17:26;99053.66;;;13.78;81.94
46942;BME280;32676;52.630;4.896;2023-07-20T04:19:52;99052.84;;;13.78;82.10
46942;BME280;32676;52.630;4.896;2023-07-20T04:22:19;99052.00;;;13.77;81.99
46942;BME280;32676;52.630;4.896;2023-07-20T04:24:46;99046.00;;;13.75;82.23
46942;BME280;32676;52.630;4.896;2023-07-20T04:27:13;99039.03;;;13.74;81.91
46942;BME280;32676;52.630;4.896;2023-07-20T04:29:39;99048.63;;;13.75;82.21
46942;BME280;32676;52.630;4.896;2023-07-20T04:32:06;99067.84;;;13.77;82.13
46942;BME280;32676;52.630;4.896;2023-07-20T04:34:32;99078.16;;;13.80;82.44
46942;BME280;32676;52.630;4.896;2023-07-20T04:37:02;99094.59;;;13.84;82.58
46942;BME280;32676;52.630;4.896;2023-07-20T04:39:29;99112.75;;;13.89;82.66
46942;BME280;32676;52.630;4.896;2023-07-20T04:41:57;99160.44;;;13.98;82.33
46942;BME280;32676;52.630;4.896;2023-07-20T04:44:23;99213.31;;;14.10;82.51
46942;BME280;32676;52.630;4.896;2023-07-20T04:46:49;99262.72;;;14.20;82.25
46942;BME280;32676;52.630;4.896;2023-07-20T04:49:15;99293.03;;;14.28;82.44
46942;BME280;32676;52.630;4.896;2023-07-20T04:51:42;99325.06;;;14.36;82.40
46942;BME280;32676;52.630;4.896;2023-07-20T04:54:08;99358.97;;;14.42;82.47
46942;BME280;32676;52.630;4.896;2023-07-20T04:56:34;99391.09;;;14.49;82.74
46942;BME280;32676;52.630;4.896;2023-07-20T04:59:02;99412.75;;;14.54;82.60
46942;BME280;32676;52.630;4.896;2023-07-20T05:01:28;99428.31;;;14.58;82.32
46942;BME280;32676;52.630;4.896;2023-07-20T05:03:55;99452.63;;;14.64;82.21
46942;BME280;32676;52.630;4.896;2023-07-20T05:06:21;99469.94;;;14.68;82.23
46942;BME280;32676;52.630;4.896;2023-07-20T05:08:47;99499.56;;;14.73;81.70
46942;BME280;32676;52.630;4.896;2023-07-20T05:11:13;99534.25;;;14.81;81.33
46942;BME280;32676;52.630;4.896;2023-07-20T05:13:40;99589.88;;;14.92;81.20
46942;BME280;32676;52.630;4.896;2023-07-20T05:16:07;99646.25;;;15.06;81.21
46942;BME280;32676;52.630;4.896;2023-07-20T05:18:34;99707.94;;;15.19;80.86
46942;BME280;32676;52.630;4.896;2023-07-20T05:21:00;99762.56;;;15.33;80.69
46942;BME280;32676;52.630;4.896;2023-07-20T05:23:26;99837.31;;;15.49;80.20
46942;BME280;32676;52.630;4.896;2023-07-20T08:24:22;102012.09;;;20.60;58.72
46942;BME280;32676;52.630;4.896;2023-07-20T08:26:48;101915.25;;;20.41;59.20
46942;BME280;32676;52.630;4.896;2023-07-20T08:29:14;101857.41;;;20.25;59.38
46942;BME280;32676;52.630;4.896;2023-07-20T08:31:41;101809.03;;;20.16;60.59
46942;BME280;32676;52.630;4.896;2023-07-20T08:34:07;101770.31;;;20.08;60.16
46942;BME280;32676;52.630;4.896;2023-07-20T08:36:33;101747.47;;;20.03;60.34
46942;BME280;32676;52.630;4.896;2023-07-20T08:39:00;101733.44;;;19.99;60.10
46942;BME280;32676;52.630;4.896;2023-07-20T08:41:29;101757.03;;;20.07;59.08
46942;BME280;32676;52.630;4.896;2023-07-20T08:43:56;101829.19;;;20.21;58.96
46942;BME280;32676;52.630;4.896;2023-07-20T08:46:23;101842.31;;;20.24;58.50
46942;BME280;32676;52.630;4.896;2023-07-20T08:48:49;101840.53;;;20.25;58.99
46942;BME280;32676;52.630;4.896;2023-07-20T08:51:18;101841.38;;;20.25;59.63
46942;BME280;32676;52.630;4.896;2023-07-20T08:53:46;101843.09;;;20.26;60.58
46942;BME280;32676;52.630;4.896;2023-07-20T08:56:13;101830.72;;;20.25;60.07
46942;BME280;32676;52.630;4.896;2023-07-20T08:58:42;101828.97;;;20.24;59.26
46942;BME280;32676;52.630;4.896;2023-07-20T09:01:09;101827.28;;;20.23;59.09
46942;BME280;32676;52.630;4.896;2023-07-20T09:03:36;101809.69;;;20.19;58.78
46942;BME280;32676;52.630;4.896;2023-07-20T09:06:04;101849.13;;;20.30;58.44
46942;BME280;32676;52.630;4.896;2023-07-20T09:08:31;101921.19;;;20.46;59.45
46942;BME280;32676;52.630;4.896;2023-07-20T09:10:57;101997.63;;;20.64;59.72
46942;BME280;32676;52.630;4.896;2023-07-20T09:13:24;102070.63;;;20.81;58.38
46942;BME280;32676;52.630;4.896;2023-07-20T09:15:54;102191.25;;;21.06;57.71
46942;BME280;32676;52.630;4.896;2023-07-20T09:18:24;102222.84;;;21.16;57.27
46942;BME280;32676;52.630;4.896;2023-07-20T09:20:51;102217.50;;;21.16;56.56
46942;BME280;32676;52.630;4.896;2023-07-20T09:23:17;102195.50;;;21.11;56.85
46942;BME280;32676;52.630;4.896;2023-07-20T09:25:43;102150.56;;;21.01;55.84
46942;BME280;32676;52.630;4.896;2023-07-20T09:28:11;102118.72;;;20.97;56.06
46942;BME280;32676;52.630;4.896;2023-07-20T09:30:37;102120.56;;;20.96;56.40
46942;BME280;32676;52.630;4.896;2023-07-20T09:33:07;102152.28;;;21.02;56.14
46942;BME280;32676;52.630;4.896;2023-07-20T09:35:44;102188.31;;;21.11;55.26
46942;BME280;32676;52.630;4.896;2023-07-20T09:38:10;102167.09;;;21.08;55.07
46942;BME280;32676;52.630;4.896;2023-07-20T09:40:37;102164.44;;;21.08;56.30
46942;BME280;32676;52.630;4.896;2023-07-20T09:43:04;102204.00;;;21.17;56.35
46942;BME280;32676;52.630;4.896;2023-07-20T09:45:34;102188.09;;;21.16;55.70
46942;BME280;32676;52.630;4.896;2023-07-20T09:48:04;102165.19;;;21.10;56.67
46942;BME280;32676;52.630;4.896;2023-07-20T09:50:32;102134.34;;;21.04;56.67
46942;BME280;32676;52.630;4.896;2023-07-20T09:52:59;102130.81;;;21.04;57.20
46942;BME280;32676;52.630;4.896;2023-07-20T09:55:27;102128.22;;;21.02;56.08
46942;BME280;32676;52.630;4.896;2023-07-20T09:57:53;102103.47;;;20.99;55.75
46942;BME280;32676;52.630;4.896;2023-07-20T10:00:20;102088.47;;;20.96;55.61
46942;BME280;32676;52.630;4.896;2023-07-20T10:02:47;102072.63;;;20.93;56.21
46942;BME280;32676;52.630;4.896;2023-07-20T10:05:16;102093.66;;;20.99;57.13
46942;BME280;32676;52.630;4.896;2023-07-20T10:07:44;102114.84;;;21.02;56.43
46942;BME280;32676;52.630;4.896;2023-07-20T10:10:14;102128.81;;;21.07;56.41
46942;BME280;32676;52.630;4.896;2023-07-20T10:12:40;102168.50;;;21.15;56.55
46942;BME280;32676;52.630;4.896;2023-07-20T10:15:10;102191.34;;;21.21;56.53
46942;BME280;32676;52.630;4.896;2023-07-20T10:17:37;102239.75;;;21.32;56.37
46942;BME280;32676;52.630;4.896;2023-07-20T10:20:07;102262.53;;;21.39;55.81
46942;BME280;32676;52.630;4.896;2023-07-20T10:22:35;102306.56;;;21.50;55.12
46942;BME280;32676;52.630;4.896;2023-07-20T10:25:03;102366.50;;;21.63;54.01
46942;BME280;32676;52.630;4.896;2023-07-20T10:27:31;102413.97;;;21.75;53.70
46942;BME280;32676;52.630;4.896;2023-07-20T10:29:57;102399.81;;;21.73;52.00
46942;BME280;32676;52.630;4.896;2023-07-20T10:32:25;102391.94;;;21.70;53.50
46942;BME280;32676;52.630;4.896;2023-07-20T10:34:51;102343.34;;;21.62;53.99
46942;BME280;32676;52.630;4.896;2023-07-20T10:42:48;102327.47;;;21.59;53.68
46942;BME280;32676;52.630;4.896;2023-07-20T10:45:14;102391.69;;;21.75;52.56
46942;BME280;32676;52.630;4.896;2023-07-20T10:47:45;102411.91;;;21.80;50.98
46942;BME280;32676;52.630;4.896;2023-07-20T10:50:11;102413.66;;;21.81;50.20
46942;BME280;32676;52.630;4.896;2023-07-20T10:52:38;102442.66;;;21.89;52.35
46942;BME280;32676;52.630;4.896;2023-07-20T10:55:13;102456.81;;;21.91;52.56
46942;BME280;32676;52.630;4.896;2023-07-20T10:57:40;102561.72;;;22.15;52.24
46942;BME280;32676;52.630;4.896;2023-07-20T11:00:09;102656.09;;;22.38;52.25
46942;BME280;32676;52.630;4.896;2023-07-20T11:02:43;102761.94;;;22.62;51.46
46942;BME280;32676;52.630;4.896;2023-07-20T11:07:51;102881.94;;;22.92;49.60
46942;BME280;32676;52.630;4.896;2023-07-20T11:10:17;102972.19;;;23.11;50.73
46942;BME280;32676;52.630;4.896;2023-07-20T11:15:27;103030.31;;;23.28;49.10
46942;BME280;32676;52.630;4.896;2023-07-20T11:18:11;103014.38;;;23.25;49.26
46942;BME280;32676;52.630;4.896;2023-07-20T11:20:37;102981.66;;;23.18;51.33
46942;BME280;32676;52.630;4.896;2023-07-20T11:23:04;103010.75;;;23.26;51.64
46942;BME280;32676;52.630;4.896;2023-07-20T11:25:35;103017.75;;;23.28;51.44
46942;BME280;32676;52.630;4.896;2023-07-20T11:28:02;103029.31;;;23.30;50.80
46942;BME280;32676;52.630;4.896;2023-07-20T11:30:33;102924.84;;;23.10;51.03
46942;BME280;32676;52.630;4.896;2023-07-20T11:33:00;102875.28;;;22.99;50.95
46942;BME280;32676;52.630;4.896;2023-07-20T11:35:26;102886.72;;;23.03;52.01
46942;BME280;32676;52.630;4.896;2023-07-20T11:37:52;102836.34;;;22.92;51.06
46942;BME280;32676;52.630;4.896;2023-07-20T11:40:19;102806.22;;;22.87;50.83
46942;BME280;32676;52.630;4.896;2023-07-20T11:42:45;102723.16;;;22.70;51.57
46942;BME280;32676;52.630;4.896;2023-07-20T11:45:11;102654.31;;;22.54;52.25
46942;BME280;32676;52.630;4.896;2023-07-20T11:47:40;102677.31;;;22.58;52.06
46942;BME280;32676;52.630;4.896;2023-07-20T11:50:07;102663.13;;;22.56;53.16
46942;BME280;32676;52.630;4.896;2023-07-20T11:52:34;102620.56;;;22.50;52.98
46942;BME280;32676;52.630;4.896;2023-07-20T11:55:01;102612.72;;;22.47;52.74
46942;BME280;32676;52.630;4.896;2023-07-20T11:57:27;102610.91;;;22.48;52.52
46942;BME280;32676;52.630;4.896;2023-07-20T11:59:53;102574.59;;;22.42;52.47
46942;BME280;32676;52.630;4.896;2023-07-20T12:02:22;102546.41;;;22.35;52.46
46942;BME280;32676;52.630;4.896;2023-07-20T12:04:51;102498.69;;;22.26;52.10
46942;BME280;32676;52.630;4.896;2023-07-20T12:07:18;102446.66;;;22.14;52.34
46942;BME280;32676;52.630;4.896;2023-07-20T12:09:44;102393.72;;;22.03;52.34
46942;BME280;32676;52.630;4.896;2023-07-20T12:12:11;102412.19;;;22.08;52.68
46942;BME280;32676;52.630;4.896;2023-07-20T12:14:37;102402.34;;;22.08;53.30
46942;BME280;32676;52.630;4.896;2023-07-20T12:17:04;102400.72;;;22.05;53.08
46942;BME280;32676;52.630;4.896;2023-07-20T12:19:30;102382.06;;;22.04;52.86
46942;BME280;32676;52.630;4.896;2023-07-20T12:21:59;102382.13;;;22.02;52.90
46942;BME280;32676;52.630;4.896;2023-07-20T12:24:26;102407.63;;;22.10;51.79
46942;BME280;32676;52.630;4.896;2023-07-20T12:26:55;102392.59;;;22.07;52.30
46942;BME280;32676;52.630;4.896;2023-07-20T12:29:22;102355.63;;;21.98;52.40
46942;BME280;32676;52.630;4.896;2023-07-20T12:31:48;102334.38;;;21.95;53.28
46942;BME280;32676;52.630;4.896;2023-07-20T12:34:14;102320.31;;;21.91;52.93
46942;BME280;32676;52.630;4.896;2023-07-20T12:36:41;102317.56;;;21.93;53.50
46942;BME280;32676;52.630;4.896;2023-07-20T12:39:08;102357.19;;;22.02;53.37
46942;BME280;32676;52.630;4.896;2023-07-20T12:41:34;102358.94;;;22.03;53.21
46942;BME280;32676;52.630;4.896;2023-07-20T12:44:01;102367.72;;;22.05;53.46
46942;BME280;32676;52.630;4.896;2023-07-20T12:46:27;102394.16;;;22.11;53.96
46942;BME280;32676;52.630;4.896;2023-07-20T12:48:55;102398.56;;;22.12;53.14
46942;BME280;32676;52.630;4.896;2023-07-20T12:51:21;102435.53;;;22.21;53.17
46942;BME280;32676;52.630;4.896;2023-07-20T12:53:48;102450.47;;;22.26;52.26
46942;BME280;32676;52.630;4.896;2023-07-20T12:56:15;102512.19;;;22.40;51.22
46942;BME280;32676;52.630;4.896;2023-07-20T12:58:42;102556.19;;;22.52;50.25
46942;BME280;32676;52.630;4.896;2023-07-20T13:01:08;102542.97;;;22.49;49.50
46942;BME280;32676;52.630;4.896;2023-07-20T13:03:34;102555.25;;;22.53;48.83
46942;BME280;32676;52.630;4.896;2023-07-20T13:06:01;102604.72;;;22.63;48.85
46942;BME280;32676;52.630;4.896;2023-07-20T13:08:27;102653.16;;;22.76;49.26
46942;BME280;32676;52.630;4.896;2023-07-20T13:10:53;102662.75;;;22.80;47.29
46942;BME280;32676;52.630;4.896;2023-07-20T13:13:21;102699.00;;;22.87;47.08
46942;BME280;32676;52.630;4.896;2023-07-20T13:15:47;102728.91;;;22.95;46.92
46942;BME280;32676;52.630;4.896;2023-07-20T13:18:14;102730.66;;;22.96;46.93
46942;BME280;32676;52.630;4.896;2023-07-20T13:20:40;102778.28;;;23.09;46.41
46942;BME280;32676;52.630;4.896;2023-07-20T13:23:06;102804.78;;;23.15;46.21
46942;BME280;32676;52.630;4.896;2023-07-20T13:25:33;102758.75;;;23.07;45.07
46942;BME280;32676;52.630;4.896;2023-07-20T13:27:59;102709.13;;;22.98;45.62
46942;BME280;32676;52.630;4.896;2023-07-20T13:30:27;102638.63;;;22.80;45.37
46942;BME280;32676;52.630;4.896;2023-07-20T13:32:53;102648.22;;;22.84;46.16
46942;BME280;32676;52.630;4.896;2023-07-20T13:35:20;102660.47;;;22.88;45.64
46942;BME280;32676;52.630;4.896;2023-07-20T13:37:46;102684.22;;;22.96;45.47
46942;BME280;32676;52.630;4.896;2023-07-20T13:40:12;102697.44;;;22.99;43.55
46942;BME280;32676;52.630;4.896;2023-07-20T13:42:41;102712.34;;;23.05;44.03
46942;BME280;32676;52.630;4.896;2023-07-20T13:45:09;102710.59;;;23.04;43.88
46942;BME280;32676;52.630;4.896;2023-07-20T13:47:37;102699.88;;;23.04;44.74
46942;BME280;32676;52.630;4.896;2023-07-20T13:50:03;102691.91;;;23.02;44.27
46942;BME280;32676;52.630;4.896;2023-07-20T13:52:30;102674.25;;;22.98;44.36
46942;BME280;32676;52.630;4.896;2023-07-20T13:54:56;102679.44;;;23.01;44.35
46942;BME280;32676;52.630;4.896;2023-07-20T13:57:22;102705.97;;;23.07;44.91
46942;BME280;32676;52.630;4.896;2023-07-20T13:59:49;102712.03;;;23.11;45.71
46942;BME280;32676;52.630;4.896;2023-07-20T14:02:15;102698.78;;;23.08;45.85
46942;BME280;32676;52.630;4.896;2023-07-20T14:04:43;102622.78;;;22.91;44.80
46942;BME280;32676;52.630;4.896;2023-07-20T14:07:09;102609.53;;;22.88;45.22
46942;BME280;32676;52.630;4.896;2023-07-20T14:09:36;102620.03;;;22.93;46.18
46942;BME280;32676;52.630;4.896;2023-07-20T14:12:02;102604.88;;;22.92;46.36
46942;BME280;32676;52.630;4.896;2023-07-20T14:14:29;102637.59;;;22.98;47.34
46942;BME280;32676;52.630;4.896;2023-07-20T14:16:55;102619.06;;;22.94;47.91
46942;BME280;32676;52.630;4.896;2023-07-20T14:19:22;102633.06;;;22.99;48.39
46942;BME280;32676;52.630;4.896;2023-07-20T14:21:50;102653.44;;;23.03;47.75
46942;BME280;32676;52.630;4.896;2023-07-20T14:24:16;102658.72;;;23.05;46.86
46942;BME280;32676;52.630;4.896;2023-07-20T14:26:42;102653.34;;;23.05;48.50
46942;BME280;32676;52.630;4.896;2023-07-20T14:29:09;102676.38;;;23.09;48.19
46942;BME280;32676;52.630;4.896;2023-07-20T14:31:35;102624.94;;;23.00;48.04
46942;BME280;32676;52.630;4.896;2023-07-20T14:34:01;102577.22;;;22.91;48.38
46942;BME280;32676;52.630;4.896;2023-07-20T14:36:28;102594.84;;;22.95;48.66
46942;BME280;32676;52.630;4.896;2023-07-20T14:38:55;102614.22;;;23.00;48.41
46942;BME280;32676;52.630;4.896;2023-07-20T14:41:21;102642.47;;;23.08;48.27
46942;BME280;32676;52.630;4.896;2023-07-20T14:43:48;102646.09;;;23.07;47.52
46942;BME280;32676;52.630;4.896;2023-07-20T17:20:43;101982.59;;;21.84;49.35
46942;BME280;32676;52.630;4.896;2023-07-20T17:23:09;101962.34;;;21.80;49.85
46942;BME280;32676;52.630;4.896;2023-07-20T17:25:35;101938.44;;;21.77;49.73
46942;BME280;32676;52.630;4.896;2023-07-20T17:28:02;101916.47;;;21.72;50.25
46942;BME280;32676;52.630;4.896;2023-07-20T17:30:28;101926.22;;;21.73;50.56
46942;BME280;32676;52.630;4.896;2023-07-20T17:32:54;101902.31;;;21.70;50.74
46942;BME280;32676;52.630;4.896;2023-07-20T17:35:21;101905.97;;;21.69;50.95
46942;BME280;32676;52.630;4.896;2023-07-20T17:37:48;101869.09;;;21.60;49.79
46942;BME280;32676;52.630;4.896;2023-07-20T17:40:15;101816.34;;;21.47;49.51
46942;BME280;32676;52.630;4.896;2023-07-20T17:42:43;101776.69;;;21.40;50.20
46942;BME280;32676;52.630;4.896;2023-07-20T17:45:09;101772.38;;;21.37;50.39
46942;BME280;32676;52.630;4.896;2023-07-20T17:47:36;101802.22;;;21.45;51.37
46942;BME280;32676;52.630;4.896;2023-07-20T17:50:03;101768.75;;;21.38;51.03
46942;BME280;32676;52.630;4.896;2023-07-20T17:52:29;101747.66;;;21.34;51.12
46942;BME280;32676;52.630;4.896;2023-07-20T17:54:57;101751.97;;;21.36;51.82
46942;BME280;32676;52.630;4.896;2023-07-20T17:57:24;101745.09;;;21.32;51.70
46942;BME280;32676;52.630;4.896;2023-07-20T17:59:51;101733.44;;;21.33;51.75
46942;BME280;32676;52.630;4.896;2023-07-20T18:02:17;101759.22;;;21.34;51.73
46942;BME280;32676;52.630;4.896;2023-07-20T18:04:43;101709.00;;;21.25;51.13
46942;BME280;32676;52.630;4.896;2023-07-20T18:07:09;101635.97;;;21.10;51.28
46942;BME280;32676;52.630;4.896;2023-07-20T18:09:36;101582.47;;;20.97;51.69
46942;BME280;32676;52.630;4.896;2023-07-20T18:12:04;101535.19;;;20.85;52.14
46942;BME280;32676;52.630;4.896;2023-07-20T18:14:30;101498.38;;;20.76;52.52
46942;BME280;32676;52.630;4.896;2023-07-20T18:16:56;101452.78;;;20.64;52.60
46942;BME280;32676;52.630;4.896;2023-07-20T18:19:22;101410.63;;;20.55;53.00
46942;BME280;32676;52.630;4.896;2023-07-20T18:21:49;101358.03;;;20.43;53.45
46942;BME280;32676;52.630;4.896;2023-07-20T18:24:16;101323.00;;;20.35;54.08
46942;BME280;32676;52.630;4.896;2023-07-20T18:26:42;101303.75;;;20.29;54.64
46942;BME280;32676;52.630;4.896;2023-07-20T18:29:10;101272.13;;;20.23;54.91
46942;BME280;32676;52.630;4.896;2023-07-20T18:31:36;101240.63;;;20.16;54.83
46942;BME280;32676;52.630;4.896;2023-07-20T18:34:04;101195.19;;;20.03;55.00
46942;BME280;32676;52.630;4.896;2023-07-20T18:36:30;101161.91;;;19.96;55.08
46942;BME280;32676;52.630;4.896;2023-07-20T18:38:57;101145.34;;;19.90;55.56